Airport View

Enter AWOS ICAO identifier for current METAR.

ex. KFNL

KBNL 191835Z AUTO 27010KT 10SM CLR 13/02 A2999 RMK AO2

19 Jan 2020 18:31

Frequency: 119.775

Phone: 803-259-4536

Other Area AWOS: KAQX - KAIK - KOGB - KAGS

TAF KOGB 191721Z 1918/2018 29012G20KT P6SM FEW050 BKN250 FM200000 34010KT P6SM SKC FM200600 01007KT P6SM SKC